sensor_id;sensor_type;location;lat;lon;timestamp;P1;P2;P0
78408;PMS5003;67697;50.750;-3.270;2024-01-10T00:01:42;8;5;
78408;PMS5003;67697;50.750;-3.270;2024-01-10T00:04:07;2;2;
78408;PMS5003;67697;50.750;-3.270;2024-01-10T00:06:32;8;4;
78408;PMS5003;67697;50.750;-3.270;2024-01-10T00:08:57;2;2;
78408;PMS5003;67697;50.750;-3.270;2024-01-10T00:11:23;5;2;
78408;PMS5003;67697;50.750;-3.270;2024-01-10T00:13:48;5;4;
78408;PMS5003;67697;50.750;-3.270;2024-01-10T00:16:13;7;5;
78408;PMS5003;67697;50.750;-3.270;2024-01-10T00:18:38;4;4;
78408;PMS5003;67697;50.750;-3.270;2024-01-10T00:21:03;7;5;
78408;PMS5003;67697;50.750;-3.270;2024-01-10T00:23:28;4;4;
78408;PMS5003;67697;50.750;-3.270;2024-01-10T00:25:53;4;4;
78408;PMS5003;67697;50.750;-3.270;2024-01-10T00:28:18;7;4;
78408;PMS5003;67697;50.750;-3.270;2024-01-10T00:30:43;4;4;
78408;PMS5003;67697;50.750;-3.270;2024-01-10T00:33:08;2;2;
78408;PMS5003;67697;50.750;-3.270;2024-01-10T00:35:33;7;2;
78408;PMS5003;67697;50.750;-3.270;2024-01-10T00:37:58;1;1;
78408;PMS5003;67697;50.750;-3.270;2024-01-10T00:40:23;7;5;
78408;PMS5003;67697;50.750;-3.270;2024-01-10T00:42:48;5;5;
78408;PMS5003;67697;50.750;-3.270;2024-01-10T00:45:13;7;4;
78408;PMS5003;67697;50.750;-3.270;2024-01-10T00:47:38;2;2;
78408;PMS5003;67697;50.750;-3.270;2024-01-10T00:50:03;1;1;
78408;PMS5003;67697;50.750;-3.270;2024-01-10T00:52:28;8;4;
78408;PMS5003;67697;50.750;-3.270;2024-01-10T00:54:53;2;2;
78408;PMS5003;67697;50.750;-3.270;2024-01-10T00:57:18;2;1;
78408;PMS5003;67697;50.750;-3.270;2024-01-10T00:59:43;4;4;
78408;PMS5003;67697;50.750;-3.270;2024-01-10T01:02:09;7;4;
78408;PMS5003;67697;50.750;-3.270;2024-01-10T01:04:33;4;4;
78408;PMS5003;67697;50.750;-3.270;2024-01-10T01:06:59;2;2;
78408;PMS5003;67697;50.750;-3.270;2024-01-10T01:09:29;8;4;
78408;PMS5003;67697;50.750;-3.270;2024-01-10T01:11:49;4;2;
78408;PMS5003;67697;50.750;-3.270;2024-01-10T01:14:14;2;2;
78408;PMS5003;67697;50.750;-3.270;2024-01-10T01:16:39;7;5;
78408;PMS5003;67697;50.750;-3.270;2024-01-10T01:19:05;5;4;
78408;PMS5003;67697;50.750;-3.270;2024-01-10T01:21:29;4;2;
78408;PMS5003;67697;50.750;-3.270;2024-01-10T01:23:55;5;2;
78408;PMS5003;67697;50.750;-3.270;2024-01-10T01:26:19;5;2;
78408;PMS5003;67697;50.750;-3.270;2024-01-10T01:28:44;2;2;
78408;PMS5003;67697;50.750;-3.270;2024-01-10T01:31:10;8;5;
78408;PMS5003;67697;50.750;-3.270;2024-01-10T01:33:35;5;2;
78408;PMS5003;67697;50.750;-3.270;2024-01-10T01:36:00;10;4;
78408;PMS5003;67697;50.750;-3.270;2024-01-10T01:38:25;2;2;
78408;PMS5003;67697;50.750;-3.270;2024-01-10T01:40:50;10;7;
78408;PMS5003;67697;50.750;-3.270;2024-01-10T01:43:18;2;2;
78408;PMS5003;67697;50.750;-3.270;2024-01-10T01:45:40;1;1;
78408;PMS5003;67697;50.750;-3.270;2024-01-10T01:48:05;4;4;
78408;PMS5003;67697;50.750;-3.270;2024-01-10T01:50:30;2;2;
78408;PMS5003;67697;50.750;-3.270;2024-01-10T01:52:55;5;4;
78408;PMS5003;67697;50.750;-3.270;2024-01-10T01:55:20;10;5;
78408;PMS5003;67697;50.750;-3.270;2024-01-10T01:57:45;4;2;
78408;PMS5003;67697;50.750;-3.270;2024-01-10T02:00:11;8;5;
78408;PMS5003;67697;50.750;-3.270;2024-01-10T02:02:35;7;4;
78408;PMS5003;67697;50.750;-3.270;2024-01-10T02:05:00;4;2;
78408;PMS5003;67697;50.750;-3.270;2024-01-10T02:07:26;4;2;
78408;PMS5003;67697;50.750;-3.270;2024-01-10T02:09:51;2;2;
78408;PMS5003;67697;50.750;-3.270;2024-01-10T02:12:16;4;2;
78408;PMS5003;67697;50.750;-3.270;2024-01-10T02:14:41;2;2;
78408;PMS5003;67697;50.750;-3.270;2024-01-10T02:17:06;7;2;
78408;PMS5003;67697;50.750;-3.270;2024-01-10T02:19:31;4;4;
78408;PMS5003;67697;50.750;-3.270;2024-01-10T02:21:56;4;4;
78408;PMS5003;67697;50.750;-3.270;2024-01-10T02:24:22;4;4;
78408;PMS5003;67697;50.750;-3.270;2024-01-10T02:26:47;5;2;
78408;PMS5003;67697;50.750;-3.270;2024-01-10T02:29:12;5;4;
78408;PMS5003;67697;50.750;-3.270;2024-01-10T02:31:37;4;4;
78408;PMS5003;67697;50.750;-3.270;2024-01-10T02:34:02;4;4;
78408;PMS5003;67697;50.750;-3.270;2024-01-10T02:36:27;8;4;
78408;PMS5003;67697;50.750;-3.270;2024-01-10T02:38:52;2;2;
78408;PMS5003;67697;50.750;-3.270;2024-01-10T02:41:18;5;4;
78408;PMS5003;67697;50.750;-3.270;2024-01-10T02:43:43;10;4;
78408;PMS5003;67697;50.750;-3.270;2024-01-10T02:46:08;5;2;
78408;PMS5003;67697;50.750;-3.270;2024-01-10T02:48:33;7;1;
78408;PMS5003;67697;50.750;-3.270;2024-01-10T02:50:58;5;4;
78408;PMS5003;67697;50.750;-3.270;2024-01-10T02:53:23;2;2;
78408;PMS5003;67697;50.750;-3.270;2024-01-10T02:55:49;11;4;
78408;PMS5003;67697;50.750;-3.270;2024-01-10T02:58:13;4;2;
78408;PMS5003;67697;50.750;-3.270;2024-01-10T03:00:39;4;4;
78408;PMS5003;67697;50.750;-3.270;2024-01-10T03:03:04;8;4;
78408;PMS5003;67697;50.750;-3.270;2024-01-10T03:05:29;7;2;
78408;PMS5003;67697;50.750;-3.270;2024-01-10T03:07:54;7;5;
78408;PMS5003;67697;50.750;-3.270;2024-01-10T03:10:19;4;4;
78408;PMS5003;67697;50.750;-3.270;2024-01-10T03:12:44;8;5;
78408;PMS5003;67697;50.750;-3.270;2024-01-10T03:15:09;5;4;
78408;PMS5003;67697;50.750;-3.270;2024-01-10T03:17:34;8;5;
78408;PMS5003;67697;50.750;-3.270;2024-01-10T03:19:59;2;2;
78408;PMS5003;67697;50.750;-3.270;2024-01-10T03:22:24;4;2;
78408;PMS5003;67697;50.750;-3.270;2024-01-10T03:24:55;13;5;
78408;PMS5003;67697;50.750;-3.270;2024-01-10T03:27:15;8;4;
78408;PMS5003;67697;50.750;-3.270;2024-01-10T03:29:40;5;5;
78408;PMS5003;67697;50.750;-3.270;2024-01-10T03:32:05;1;1;
78408;PMS5003;67697;50.750;-3.270;2024-01-10T03:34:30;4;1;
78408;PMS5003;67697;50.750;-3.270;2024-01-10T03:36:55;7;2;
78408;PMS5003;67697;50.750;-3.270;2024-01-10T03:39:20;4;4;
78408;PMS5003;67697;50.750;-3.270;2024-01-10T03:41:45;2;2;
78408;PMS5003;67697;50.750;-3.270;2024-01-10T03:44:10;7;4;
78408;PMS5003;67697;50.750;-3.270;2024-01-10T03:46:36;4;4;
78408;PMS5003;67697;50.750;-3.270;2024-01-10T03:49:02;2;2;
78408;PMS5003;67697;50.750;-3.270;2024-01-10T03:51:26;7;5;
78408;PMS5003;67697;50.750;-3.270;2024-01-10T03:53:53;2;2;
78408;PMS5003;67697;50.750;-3.270;2024-01-10T03:56:16;5;2;
78408;PMS5003;67697;50.750;-3.270;2024-01-10T03:58:42;2;2;
78408;PMS5003;67697;50.750;-3.270;2024-01-10T04:01:06;8;4;
78408;PMS5003;67697;50.750;-3.270;2024-01-10T04:03:32;5;4;
78408;PMS5003;67697;50.750;-3.270;2024-01-10T04:05:56;1;1;
78408;PMS5003;67697;50.750;-3.270;2024-01-10T04:08:21;4;2;
78408;PMS5003;67697;50.750;-3.270;2024-01-10T04:10:47;5;5;
78408;PMS5003;67697;50.750;-3.270;2024-01-10T04:13:12;2;2;
78408;PMS5003;67697;50.750;-3.270;2024-01-10T04:15:37;4;4;
78408;PMS5003;67697;50.750;-3.270;2024-01-10T04:18:02;8;4;
78408;PMS5003;67697;50.750;-3.270;2024-01-10T04:20:27;10;8;
78408;PMS5003;67697;50.750;-3.270;2024-01-10T04:22:53;10;5;
78408;PMS5003;67697;50.750;-3.270;2024-01-10T04:25:18;4;2;
78408;PMS5003;67697;50.750;-3.270;2024-01-10T04:27:43;4;4;
78408;PMS5003;67697;50.750;-3.270;2024-01-10T04:30:09;4;2;
78408;PMS5003;67697;50.750;-3.270;2024-01-10T04:32:33;5;4;
78408;PMS5003;67697;50.750;-3.270;2024-01-10T04:34:58;2;2;
78408;PMS5003;67697;50.750;-3.270;2024-01-10T04:37:23;8;2;
78408;PMS5003;67697;50.750;-3.270;2024-01-10T04:39:48;5;4;
78408;PMS5003;67697;50.750;-3.270;2024-01-10T04:42:13;5;2;
78408;PMS5003;67697;50.750;-3.270;2024-01-10T04:44:39;2;1;
78408;PMS5003;67697;50.750;-3.270;2024-01-10T04:47:05;4;2;
78408;PMS5003;67697;50.750;-3.270;2024-01-10T04:49:29;4;4;
78408;PMS5003;67697;50.750;-3.270;2024-01-10T04:51:54;1;1;
78408;PMS5003;67697;50.750;-3.270;2024-01-10T04:54:19;2;2;
78408;PMS5003;67697;50.750;-3.270;2024-01-10T04:56:44;7;5;
78408;PMS5003;67697;50.750;-3.270;2024-01-10T04:59:14;1;1;
78408;PMS5003;67697;50.750;-3.270;2024-01-10T05:01:34;2;2;
78408;PMS5003;67697;50.750;-3.270;2024-01-10T05:03:59;2;2;
78408;PMS5003;67697;50.750;-3.270;2024-01-10T05:06:24;4;2;
78408;PMS5003;67697;50.750;-3.270;2024-01-10T05:08:49;2;2;
78408;PMS5003;67697;50.750;-3.270;2024-01-10T05:11:14;4;2;
78408;PMS5003;67697;50.750;-3.270;2024-01-10T05:13:39;1;1;
78408;PMS5003;67697;50.750;-3.270;2024-01-10T05:16:04;4;2;
78408;PMS5003;67697;50.750;-3.270;2024-01-10T05:18:29;4;1;
78408;PMS5003;67697;50.750;-3.270;2024-01-10T05:20:54;4;4;
78408;PMS5003;67697;50.750;-3.270;2024-01-10T05:23:19;2;1;
78408;PMS5003;67697;50.750;-3.270;2024-01-10T05:25:44;2;2;
78408;PMS5003;67697;50.750;-3.270;2024-01-10T05:28:09;1;1;
78408;PMS5003;67697;50.750;-3.270;2024-01-10T05:30:34;4;4;
78408;PMS5003;67697;50.750;-3.270;2024-01-10T05:32:59;2;1;
78408;PMS5003;67697;50.750;-3.270;2024-01-10T05:35:25;5;4;
78408;PMS5003;67697;50.750;-3.270;2024-01-10T05:37:50;4;2;
78408;PMS5003;67697;50.750;-3.270;2024-01-10T05:40:15;7;4;
78408;PMS5003;67697;50.750;-3.270;2024-01-10T05:42:40;2;2;
78408;PMS5003;67697;50.750;-3.270;2024-01-10T05:45:05;5;5;
78408;PMS5003;67697;50.750;-3.270;2024-01-10T05:47:30;2;1;
78408;PMS5003;67697;50.750;-3.270;2024-01-10T05:49:55;2;2;
78408;PMS5003;67697;50.750;-3.270;2024-01-10T05:52:20;1;1;
78408;PMS5003;67697;50.750;-3.270;2024-01-10T05:54:45;7;2;
78408;PMS5003;67697;50.750;-3.270;2024-01-10T05:57:10;4;4;
78408;PMS5003;67697;50.750;-3.270;2024-01-10T05:59:37;4;2;
78408;PMS5003;67697;50.750;-3.270;2024-01-10T06:02:01;4;2;
78408;PMS5003;67697;50.750;-3.270;2024-01-10T06:04:26;2;2;
78408;PMS5003;67697;50.750;-3.270;2024-01-10T06:06:51;2;2;
78408;PMS5003;67697;50.750;-3.270;2024-01-10T06:09:16;2;2;
78408;PMS5003;67697;50.750;-3.270;2024-01-10T06:11:41;2;2;
78408;PMS5003;67697;50.750;-3.270;2024-01-10T06:14:06;2;2;
78408;PMS5003;67697;50.750;-3.270;2024-01-10T06:16:31;4;2;
78408;PMS5003;67697;50.750;-3.270;2024-01-10T06:18:56;2;2;
78408;PMS5003;67697;50.750;-3.270;2024-01-10T06:21:21;5;4;
78408;PMS5003;67697;50.750;-3.270;2024-01-10T06:23:46;2;1;
78408;PMS5003;67697;50.750;-3.270;2024-01-10T06:26:11;2;2;
78408;PMS5003;67697;50.750;-3.270;2024-01-10T06:28:36;4;4;
78408;PMS5003;67697;50.750;-3.270;2024-01-10T06:31:01;2;2;
78408;PMS5003;67697;50.750;-3.270;2024-01-10T06:33:27;7;2;
78408;PMS5003;67697;50.750;-3.270;2024-01-10T06:35:51;1;1;
78408;PMS5003;67697;50.750;-3.270;2024-01-10T06:38:17;1;1;
78408;PMS5003;67697;50.750;-3.270;2024-01-10T06:40:42;5;5;
78408;PMS5003;67697;50.750;-3.270;2024-01-10T06:43:07;5;5;
78408;PMS5003;67697;50.750;-3.270;2024-01-10T06:45:33;4;4;
78408;PMS5003;67697;50.750;-3.270;2024-01-10T06:47:58;2;2;
78408;PMS5003;67697;50.750;-3.270;2024-01-10T06:50:23;2;2;
78408;PMS5003;67697;50.750;-3.270;2024-01-10T06:52:48;4;2;
78408;PMS5003;67697;50.750;-3.270;2024-01-10T06:55:13;2;1;
78408;PMS5003;67697;50.750;-3.270;2024-01-10T06:57:40;7;2;
78408;PMS5003;67697;50.750;-3.270;2024-01-10T07:00:04;2;2;
78408;PMS5003;67697;50.750;-3.270;2024-01-10T07:02:28;2;1;
78408;PMS5003;67697;50.750;-3.270;2024-01-10T07:04:53;2;2;
78408;PMS5003;67697;50.750;-3.270;2024-01-10T07:07:18;5;4;
78408;PMS5003;67697;50.750;-3.270;2024-01-10T07:09:43;2;2;
78408;PMS5003;67697;50.750;-3.270;2024-01-10T07:12:09;2;2;
78408;PMS5003;67697;50.750;-3.270;2024-01-10T07:14:33;2;1;
78408;PMS5003;67697;50.750;-3.270;2024-01-10T07:16:59;2;1;
78408;PMS5003;67697;50.750;-3.270;2024-01-10T07:19:24;2;2;
78408;PMS5003;67697;50.750;-3.270;2024-01-10T07:21:49;7;1;
78408;PMS5003;67697;50.750;-3.270;2024-01-10T07:24:14;5;4;
78408;PMS5003;67697;50.750;-3.270;2024-01-10T07:26:39;4;4;
78408;PMS5003;67697;50.750;-3.270;2024-01-10T07:29:04;2;1;
78408;PMS5003;67697;50.750;-3.270;2024-01-10T07:31:29;7;4;
78408;PMS5003;67697;50.750;-3.270;2024-01-10T07:33:55;5;5;
78408;PMS5003;67697;50.750;-3.270;2024-01-10T07:36:20;1;1;
78408;PMS5003;67697;50.750;-3.270;2024-01-10T07:38:45;4;4;
78408;PMS5003;67697;50.750;-3.270;2024-01-10T07:41:10;4;4;
78408;PMS5003;67697;50.750;-3.270;2024-01-10T07:43:35;1;1;
78408;PMS5003;67697;50.750;-3.270;2024-01-10T07:46:00;8;2;
78408;PMS5003;67697;50.750;-3.270;2024-01-10T07:48:25;5;1;
78408;PMS5003;67697;50.750;-3.270;2024-01-10T07:50:50;8;7;
78408;PMS5003;67697;50.750;-3.270;2024-01-10T07:53:15;8;4;
78408;PMS5003;67697;50.750;-3.270;2024-01-10T07:55:41;7;5;
78408;PMS5003;67697;50.750;-3.270;2024-01-10T07:58:06;7;1;
78408;PMS5003;67697;50.750;-3.270;2024-01-10T08:00:31;5;5;
78408;PMS5003;67697;50.750;-3.270;2024-01-10T08:02:56;4;2;
78408;PMS5003;67697;50.750;-3.270;2024-01-10T08:05:21;5;2;
78408;PMS5003;67697;50.750;-3.270;2024-01-10T08:07:46;7;2;
78408;PMS5003;67697;50.750;-3.270;2024-01-10T08:10:12;1;1;
78408;PMS5003;67697;50.750;-3.270;2024-01-10T08:12:37;1;1;
78408;PMS5003;67697;50.750;-3.270;2024-01-10T08:15:02;4;1;
78408;PMS5003;67697;50.750;-3.270;2024-01-10T08:17:27;4;1;
78408;PMS5003;67697;50.750;-3.270;2024-01-10T08:19:52;5;1;
78408;PMS5003;67697;50.750;-3.270;2024-01-10T08:22:17;7;2;
78408;PMS5003;67697;50.750;-3.270;2024-01-10T08:24:42;4;2;
78408;PMS5003;67697;50.750;-3.270;2024-01-10T08:27:07;4;2;
78408;PMS5003;67697;50.750;-3.270;2024-01-10T08:29:32;5;2;
78408;PMS5003;67697;50.750;-3.270;2024-01-10T08:31:57;1;1;
78408;PMS5003;67697;50.750;-3.270;2024-01-10T08:34:22;2;2;
78408;PMS5003;67697;50.750;-3.270;2024-01-10T08:36:48;5;5;
78408;PMS5003;67697;50.750;-3.270;2024-01-10T08:39:13;1;1;
78408;PMS5003;67697;50.750;-3.270;2024-01-10T08:41:38;4;4;
78408;PMS5003;67697;50.750;-3.270;2024-01-10T08:44:04;4;4;
78408;PMS5003;67697;50.750;-3.270;2024-01-10T08:46:28;4;2;
78408;PMS5003;67697;50.750;-3.270;2024-01-10T08:48:53;4;4;
78408;PMS5003;67697;50.750;-3.270;2024-01-10T08:51:18;5;2;
78408;PMS5003;67697;50.750;-3.270;2024-01-10T08:53:43;2;2;
78408;PMS5003;67697;50.750;-3.270;2024-01-10T08:56:08;7;2;
78408;PMS5003;67697;50.750;-3.270;2024-01-10T08:58:33;2;2;
78408;PMS5003;67697;50.750;-3.270;2024-01-10T09:00:58;4;2;
78408;PMS5003;67697;50.750;-3.270;2024-01-10T09:03:23;1;1;
78408;PMS5003;67697;50.750;-3.270;2024-01-10T09:05:48;2;2;
78408;PMS5003;67697;50.750;-3.270;2024-01-10T09:08:13;11;4;
78408;PMS5003;67697;50.750;-3.270;2024-01-10T09:10:39;5;4;
78408;PMS5003;67697;50.750;-3.270;2024-01-10T09:13:05;5;5;
78408;PMS5003;67697;50.750;-3.270;2024-01-10T09:15:30;5;4;
78408;PMS5003;67697;50.750;-3.270;2024-01-10T09:17:55;5;4;
78408;PMS5003;67697;50.750;-3.270;2024-01-10T09:20:20;4;2;
78408;PMS5003;67697;50.750;-3.270;2024-01-10T09:22:45;5;2;
78408;PMS5003;67697;50.750;-3.270;2024-01-10T09:25:10;2;2;
78408;PMS5003;67697;50.750;-3.270;2024-01-10T09:27:35;2;1;
78408;PMS5003;67697;50.750;-3.270;2024-01-10T09:30:01;1;1;
78408;PMS5003;67697;50.750;-3.270;2024-01-10T09:32:25;5;4;
78408;PMS5003;67697;50.750;-3.270;2024-01-10T09:34:50;2;2;
78408;PMS5003;67697;50.750;-3.270;2024-01-10T09:37:16;4;4;
78408;PMS5003;67697;50.750;-3.270;2024-01-10T09:39:41;8;5;
78408;PMS5003;67697;50.750;-3.270;2024-01-10T09:42:06;5;2;
78408;PMS5003;67697;50.750;-3.270;2024-01-10T09:44:31;2;2;
78408;PMS5003;67697;50.750;-3.270;2024-01-10T09:46:56;5;2;
78408;PMS5003;67697;50.750;-3.270;2024-01-10T09:49:21;8;5;
78408;PMS5003;67697;50.750;-3.270;2024-01-10T09:51:47;2;2;
78408;PMS5003;67697;50.750;-3.270;2024-01-10T09:54:11;5;4;
78408;PMS5003;67697;50.750;-3.270;2024-01-10T09:56:36;8;5;
78408;PMS5003;67697;50.750;-3.270;2024-01-10T09:59:02;10;8;
78408;PMS5003;67697;50.750;-3.270;2024-01-10T10:01:26;4;4;
78408;PMS5003;67697;50.750;-3.270;2024-01-10T10:03:52;7;4;
78408;PMS5003;67697;50.750;-3.270;2024-01-10T10:06:17;4;4;
78408;PMS5003;67697;50.750;-3.270;2024-01-10T10:08:43;13;7;
78408;PMS5003;67697;50.750;-3.270;2024-01-10T10:11:11;8;2;
78408;PMS5003;67697;50.750;-3.270;2024-01-10T10:13:33;5;4;
78408;PMS5003;67697;50.750;-3.270;2024-01-10T10:15:59;4;4;
78408;PMS5003;67697;50.750;-3.270;2024-01-10T10:18:25;7;2;
78408;PMS5003;67697;50.750;-3.270;2024-01-10T10:21:03;8;8;
78408;PMS5003;67697;50.750;-3.270;2024-01-10T10:23:15;8;5;
78408;PMS5003;67697;50.750;-3.270;2024-01-10T10:25:42;8;4;
78408;PMS5003;67697;50.750;-3.270;2024-01-10T10:28:07;5;4;
78408;PMS5003;67697;50.750;-3.270;2024-01-10T10:30:33;10;7;
78408;PMS5003;67697;50.750;-3.270;2024-01-10T10:32:58;11;7;
78408;PMS5003;67697;50.750;-3.270;2024-01-10T10:35:24;9;5;
78408;PMS5003;67697;50.750;-3.270;2024-01-10T10:37:50;5;5;
78408;PMS5003;67697;50.750;-3.270;2024-01-10T10:40:15;4;4;
78408;PMS5003;67697;50.750;-3.270;2024-01-10T10:42:43;4;4;
78408;PMS5003;67697;50.750;-3.270;2024-01-10T10:45:06;5;5;
78408;PMS5003;67697;50.750;-3.270;2024-01-10T10:47:32;8;5;
78408;PMS5003;67697;50.750;-3.270;2024-01-10T10:49:57;5;5;
78408;PMS5003;67697;50.750;-3.270;2024-01-10T10:52:22;4;4;
78408;PMS5003;67697;50.750;-3.270;2024-01-10T10:54:48;7;4;
78408;PMS5003;67697;50.750;-3.270;2024-01-10T10:57:12;12;7;
78408;PMS5003;67697;50.750;-3.270;2024-01-10T10:59:38;5;5;
78408;PMS5003;67697;50.750;-3.270;2024-01-10T11:02:03;9;8;
78408;PMS5003;67697;50.750;-3.270;2024-01-10T11:04:29;9;8;
78408;PMS5003;67697;50.750;-3.270;2024-01-10T11:06:55;7;7;
78408;PMS5003;67697;50.750;-3.270;2024-01-10T11:09:21;7;5;
78408;PMS5003;67697;50.750;-3.270;2024-01-10T11:11:50;4;4;
78408;PMS5003;67697;50.750;-3.270;2024-01-10T11:14:16;8;5;
78408;PMS5003;67697;50.750;-3.270;2024-01-10T11:16:41;5;5;
78408;PMS5003;67697;50.750;-3.270;2024-01-10T11:19:09;8;5;
78408;PMS5003;67697;50.750;-3.270;2024-01-10T11:21:30;4;4;
78408;PMS5003;67697;50.750;-3.270;2024-01-10T11:23:54;8;5;
78408;PMS5003;67697;50.750;-3.270;2024-01-10T11:26:19;5;4;
78408;PMS5003;67697;50.750;-3.270;2024-01-10T11:28:44;12;5;
78408;PMS5003;67697;50.750;-3.270;2024-01-10T11:31:09;8;4;
78408;PMS5003;67697;50.750;-3.270;2024-01-10T11:33:35;8;7;
78408;PMS5003;67697;50.750;-3.270;2024-01-10T11:36:07;5;5;
78408;PMS5003;67697;50.750;-3.270;2024-01-10T11:38:27;4;4;
78408;PMS5003;67697;50.750;-3.270;2024-01-10T11:40:51;4;4;
78408;PMS5003;67697;50.750;-3.270;2024-01-10T11:43:17;8;8;
78408;PMS5003;67697;50.750;-3.270;2024-01-10T11:48:07;8;5;
78408;PMS5003;67697;50.750;-3.270;2024-01-10T11:50:33;4;4;
78408;PMS5003;67697;50.750;-3.270;2024-01-10T11:52:59;5;4;
78408;PMS5003;67697;50.750;-3.270;2024-01-10T12:00:15;8;4;
78408;PMS5003;67697;50.750;-3.270;2024-01-10T12:02:41;6;5;
78408;PMS5003;67697;50.750;-3.270;2024-01-10T12:05:06;8;5;
78408;PMS5003;67697;50.750;-3.270;2024-01-10T12:07:31;6;6;
78408;PMS5003;67697;50.750;-3.270;2024-01-10T12:09:56;2;2;
78408;PMS5003;67697;50.750;-3.270;2024-01-10T12:12:22;5;4;
78408;PMS5003;67697;50.750;-3.270;2024-01-10T12:14:47;4;4;
78408;PMS5003;67697;50.750;-3.270;2024-01-10T12:17:13;8;6;
78408;PMS5003;67697;50.750;-3.270;2024-01-10T12:19:39;20;13;
78408;PMS5003;67697;50.750;-3.270;2024-01-10T12:22:05;9;5;
78408;PMS5003;67697;50.750;-3.270;2024-01-10T12:24:30;9;6;
78408;PMS5003;67697;50.750;-3.270;2024-01-10T12:26:56;13;8;
78408;PMS5003;67697;50.750;-3.270;2024-01-10T12:29:20;8;6;
78408;PMS5003;67697;50.750;-3.270;2024-01-10T12:31:47;8;8;
78408;PMS5003;67697;50.750;-3.270;2024-01-10T12:34:11;8;6;
78408;PMS5003;67697;50.750;-3.270;2024-01-10T12:36:37;8;5;
78408;PMS5003;67697;50.750;-3.270;2024-01-10T12:39:02;4;4;
78408;PMS5003;67697;50.750;-3.270;2024-01-10T12:41:28;13;5;
78408;PMS5003;67697;50.750;-3.270;2024-01-10T12:43:53;5;5;
78408;PMS5003;67697;50.750;-3.270;2024-01-10T12:46:19;4;4;
78408;PMS5003;67697;50.750;-3.270;2024-01-10T12:48:44;5;4;
78408;PMS5003;67697;50.750;-3.270;2024-01-10T12:51:10;4;4;
78408;PMS5003;67697;50.750;-3.270;2024-01-10T12:53:35;5;5;
78408;PMS5003;67697;50.750;-3.270;2024-01-10T12:56:01;5;5;
78408;PMS5003;67697;50.750;-3.270;2024-01-10T12:58:27;9;8;
78408;PMS5003;67697;50.750;-3.270;2024-01-10T13:00:52;13;12;
78408;PMS5003;67697;50.750;-3.270;2024-01-10T13:03:17;6;6;
78408;PMS5003;67697;50.750;-3.270;2024-01-10T13:05:43;2;2;
78408;PMS5003;67697;50.750;-3.270;2024-01-10T13:08:08;2;2;
78408;PMS5003;67697;50.750;-3.270;2024-01-10T13:10:34;4;4;
78408;PMS5003;67697;50.750;-3.270;2024-01-10T13:12:59;10;5;
78408;PMS5003;67697;50.750;-3.270;2024-01-10T13:15:24;4;4;
78408;PMS5003;67697;50.750;-3.270;2024-01-10T13:17:50;6;5;
78408;PMS5003;67697;50.750;-3.270;2024-01-10T13:20:16;4;4;
78408;PMS5003;67697;50.750;-3.270;2024-01-10T13:22:42;4;4;
78408;PMS5003;67697;50.750;-3.270;2024-01-10T13:25:08;5;5;
78408;PMS5003;67697;50.750;-3.270;2024-01-10T13:27:33;6;5;
78408;PMS5003;67697;50.750;-3.270;2024-01-10T13:29:59;8;2;
78408;PMS5003;67697;50.750;-3.270;2024-01-10T13:32:25;9;9;
78408;PMS5003;67697;50.750;-3.270;2024-01-10T13:34:50;5;5;
78408;PMS5003;67697;50.750;-3.270;2024-01-10T13:37:16;5;4;
78408;PMS5003;67697;50.750;-3.270;2024-01-10T13:39:42;6;4;
78408;PMS5003;67697;50.750;-3.270;2024-01-10T13:42:07;4;4;
78408;PMS5003;67697;50.750;-3.270;2024-01-10T13:44:33;13;8;
78408;PMS5003;67697;50.750;-3.270;2024-01-10T13:46:59;5;5;
78408;PMS5003;67697;50.750;-3.270;2024-01-10T13:49:25;10;6;
78408;PMS5003;67697;50.750;-3.270;2024-01-10T13:51:50;9;6;
78408;PMS5003;67697;50.750;-3.270;2024-01-10T13:54:16;6;5;
78408;PMS5003;67697;50.750;-3.270;2024-01-10T13:56:42;10;6;
78408;PMS5003;67697;50.750;-3.270;2024-01-10T13:59:08;5;5;
78408;PMS5003;67697;50.750;-3.270;2024-01-10T14:01:33;4;4;
78408;PMS5003;67697;50.750;-3.270;2024-01-10T14:03:58;6;4;
78408;PMS5003;67697;50.750;-3.270;2024-01-10T14:06:24;9;9;
78408;PMS5003;67697;50.750;-3.270;2024-01-10T14:08:49;5;5;
78408;PMS5003;67697;50.750;-3.270;2024-01-10T14:11:15;6;5;
78408;PMS5003;67697;50.750;-3.270;2024-01-10T14:13:41;13;6;
78408;PMS5003;67697;50.750;-3.270;2024-01-10T14:16:07;8;5;
78408;PMS5003;67697;50.750;-3.270;2024-01-10T14:18:32;9;8;
78408;PMS5003;67697;50.750;-3.270;2024-01-10T14:20:58;9;6;
78408;PMS5003;67697;50.750;-3.270;2024-01-10T14:23:24;8;4;
78408;PMS5003;67697;50.750;-3.270;2024-01-10T14:25:50;5;5;
78408;PMS5003;67697;50.750;-3.270;2024-01-10T14:28:15;6;4;
78408;PMS5003;67697;50.750;-3.270;2024-01-10T14:30:41;6;5;
78408;PMS5003;67697;50.750;-3.270;2024-01-10T14:33:06;4;4;
78408;PMS5003;67697;50.750;-3.270;2024-01-10T14:35:32;8;6;
78408;PMS5003;67697;50.750;-3.270;2024-01-10T14:37:56;4;4;
78408;PMS5003;67697;50.750;-3.270;2024-01-10T14:40:22;5;5;
78408;PMS5003;67697;50.750;-3.270;2024-01-10T14:42:47;8;5;
78408;PMS5003;67697;50.750;-3.270;2024-01-10T14:45:13;4;4;
78408;PMS5003;67697;50.750;-3.270;2024-01-10T14:47:39;4;2;
78408;PMS5003;67697;50.750;-3.270;2024-01-10T14:50:05;4;4;
78408;PMS5003;67697;50.750;-3.270;2024-01-10T14:52:31;2;2;
78408;PMS5003;67697;50.750;-3.270;2024-01-10T14:54:56;4;4;
78408;PMS5003;67697;50.750;-3.270;2024-01-10T14:57:21;4;4;
78408;PMS5003;67697;50.750;-3.270;2024-01-10T14:59:47;2;1;
78408;PMS5003;67697;50.750;-3.270;2024-01-10T15:02:12;5;4;
78408;PMS5003;67697;50.750;-3.270;2024-01-10T15:04:37;2;2;
78408;PMS5003;67697;50.750;-3.270;2024-01-10T15:07:03;5;5;
78408;PMS5003;67697;50.750;-3.270;2024-01-10T15:09:28;13;9;
78408;PMS5003;67697;50.750;-3.270;2024-01-10T15:11:54;9;8;
78408;PMS5003;67697;50.750;-3.270;2024-01-10T15:14:19;9;9;
78408;PMS5003;67697;50.750;-3.270;2024-01-10T15:16:45;8;8;
78408;PMS5003;67697;50.750;-3.270;2024-01-10T15:19:11;13;10;
78408;PMS5003;67697;50.750;-3.270;2024-01-10T15:21:37;8;5;
78408;PMS5003;67697;50.750;-3.270;2024-01-10T15:24:03;8;8;
78408;PMS5003;67697;50.750;-3.270;2024-01-10T15:26:28;10;9;
78408;PMS5003;67697;50.750;-3.270;2024-01-10T15:28:54;13;9;
78408;PMS5003;67697;50.750;-3.270;2024-01-10T15:31:20;9;9;
78408;PMS5003;67697;50.750;-3.270;2024-01-10T15:33:45;10;10;
78408;PMS5003;67697;50.750;-3.270;2024-01-10T15:36:11;8;8;
78408;PMS5003;67697;50.750;-3.270;2024-01-10T15:38:36;12;12;
78408;PMS5003;67697;50.750;-3.270;2024-01-10T15:41:02;9;6;
78408;PMS5003;67697;50.750;-3.270;2024-01-10T15:43:27;9;8;
78408;PMS5003;67697;50.750;-3.270;2024-01-10T15:45:53;9;9;
78408;PMS5003;67697;50.750;-3.270;2024-01-10T15:48:18;12;9;
78408;PMS5003;67697;50.750;-3.270;2024-01-10T15:50:44;13;10;
78408;PMS5003;67697;50.750;-3.270;2024-01-10T15:53:10;8;8;
78408;PMS5003;67697;50.750;-3.270;2024-01-10T15:55:35;9;9;
78408;PMS5003;67697;50.750;-3.270;2024-01-10T15:58:01;8;8;
78408;PMS5003;67697;50.750;-3.270;2024-01-10T16:00:32;13;10;
78408;PMS5003;67697;50.750;-3.270;2024-01-10T16:02:52;11;11;
78408;PMS5003;67697;50.750;-3.270;2024-01-10T16:05:17;15;13;
78408;PMS5003;67697;50.750;-3.270;2024-01-10T16:07:43;6;6;
78408;PMS5003;67697;50.750;-3.270;2024-01-10T16:10:09;9;9;
78408;PMS5003;67697;50.750;-3.270;2024-01-10T16:12:35;19;10;
78408;PMS5003;67697;50.750;-3.270;2024-01-10T16:15:00;18;16;
78408;PMS5003;67697;50.750;-3.270;2024-01-10T16:17:26;22;15;
78408;PMS5003;67697;50.750;-3.270;2024-01-10T16:19:52;13;12;
78408;PMS5003;67697;50.750;-3.270;2024-01-10T16:22:17;16;12;
78408;PMS5003;67697;50.750;-3.270;2024-01-10T16:24:42;18;13;